<?xml version="1.0" encoding="UTF-8" standalone="no" ?>
<gpx xmlns="http://www.topografix.com/GPX/1/1" xmlns:xsi="http://www.w3.org/2001/XMLSchema-instance" xsi:schemaLocation="http://www.topografix.com/GPX/1/1 http://www.topografix.com/GPX/1/1/gpx.xsd" version="1.1" creator="VisuGPX - https://www.visugpx.com">
  <metadata>
    <name>Orvault Sautron</name>
    <desc><![CDATA[géniale à faire sous le soleil]]></desc>
  </metadata>
  <trk>
    <name><![CDATA[ACTIVE LOG 001]]></name>
    <trkseg>
      <trkpt lat="47.2701" lon="-1.62649">
        <ele>78.4847412</ele>
        <time>2011-11-17T13:18:05Z</time>
      </trkpt>
      <trkpt lat="47.27038" lon="-1.62685">
        <ele>53.9711914</ele>
        <time>2011-11-17T13:18:25Z</time>
      </trkpt>
      <trkpt lat="47.27042" lon="-1.62714">
        <ele>48.68396</ele>
        <time>2011-11-17T13:18:42Z</time>
      </trkpt>
      <trkpt lat="47.27053" lon="-1.62755">
        <ele>49.1645508</ele>
        <time>2011-11-17T13:19:01Z</time>
      </trkpt>
      <trkpt lat="47.27055" lon="-1.62762">
        <ele>50.6065674</ele>
        <time>2011-11-17T13:19:05Z</time>
      </trkpt>
      <trkpt lat="47.27066" lon="-1.62796">
        <ele>52.048584</ele>
        <time>2011-11-17T13:19:24Z</time>
      </trkpt>
      <trkpt lat="47.27077" lon="-1.62848">
        <ele>58.77771</ele>
        <time>2011-11-17T13:19:49Z</time>
      </trkpt>
      <trkpt lat="47.2708" lon="-1.62887">
        <ele>59.2584229</ele>
        <time>2011-11-17T13:20:07Z</time>
      </trkpt>
      <trkpt lat="47.27078" lon="-1.6293">
        <ele>57.8165283</ele>
        <time>2011-11-17T13:20:31Z</time>
      </trkpt>
      <trkpt lat="47.27086" lon="-1.62973">
        <ele>54.932373</ele>
        <time>2011-11-17T13:20:53Z</time>
      </trkpt>
      <trkpt lat="47.27088" lon="-1.63011">
        <ele>50.6065674</ele>
        <time>2011-11-17T13:21:12Z</time>
      </trkpt>
      <trkpt lat="47.27086" lon="-1.6305">
        <ele>48.2033691</ele>
        <time>2011-11-17T13:21:31Z</time>
      </trkpt>
      <trkpt lat="47.2708" lon="-1.63095">
        <ele>45.3192139</ele>
        <time>2011-11-17T13:21:51Z</time>
      </trkpt>
      <trkpt lat="47.27069" lon="-1.63134">
        <ele>42.9160156</ele>
        <time>2011-11-17T13:22:09Z</time>
      </trkpt>
      <trkpt lat="47.27057" lon="-1.63175">
        <ele>41.9547119</ele>
        <time>2011-11-17T13:22:30Z</time>
      </trkpt>
      <trkpt lat="47.27052" lon="-1.63216">
        <ele>39.0706787</ele>
        <time>2011-11-17T13:22:49Z</time>
      </trkpt>
      <trkpt lat="47.27041" lon="-1.63256">
        <ele>37.1480713</ele>
        <time>2011-11-17T13:23:07Z</time>
      </trkpt>
      <trkpt lat="47.27042" lon="-1.63285">
        <ele>37.6286621</ele>
        <time>2011-11-17T13:23:25Z</time>
      </trkpt>
      <trkpt lat="47.27042" lon="-1.63328">
        <ele>39.0706787</ele>
        <time>2011-11-17T13:23:47Z</time>
      </trkpt>
      <trkpt lat="47.27047" lon="-1.63363">
        <ele>40.0321045</ele>
        <time>2011-11-17T13:24:04Z</time>
      </trkpt>
      <trkpt lat="47.27046" lon="-1.63408">
        <ele>37.6286621</ele>
        <time>2011-11-17T13:24:24Z</time>
      </trkpt>
      <trkpt lat="47.2705" lon="-1.63419">
        <ele>38.5900879</ele>
        <time>2011-11-17T13:24:30Z</time>
      </trkpt>
      <trkpt lat="47.27075" lon="-1.63428">
        <ele>40.9934082</ele>
        <time>2011-11-17T13:24:47Z</time>
      </trkpt>
      <trkpt lat="47.2709" lon="-1.63452">
        <ele>42.4354248</ele>
        <time>2011-11-17T13:25:01Z</time>
      </trkpt>
      <trkpt lat="47.27093" lon="-1.63463">
        <ele>40.9934082</ele>
        <time>2011-11-17T13:25:06Z</time>
      </trkpt>
      <trkpt lat="47.27096" lon="-1.63475">
        <ele>39.5512695</ele>
        <time>2011-11-17T13:25:11Z</time>
      </trkpt>
      <trkpt lat="47.27097" lon="-1.63484">
        <ele>40.9934082</ele>
        <time>2011-11-17T13:25:15Z</time>
      </trkpt>
      <trkpt lat="47.27097" lon="-1.63528">
        <ele>41.9547119</ele>
        <time>2011-11-17T13:25:37Z</time>
      </trkpt>
      <trkpt lat="47.27097" lon="-1.63559">
        <ele>44.838623</ele>
        <time>2011-11-17T13:25:53Z</time>
      </trkpt>
      <trkpt lat="47.27097" lon="-1.63568">
        <ele>44.838623</ele>
        <time>2011-11-17T13:25:57Z</time>
      </trkpt>
      <trkpt lat="47.27096" lon="-1.63581">
        <ele>45.3192139</ele>
        <time>2011-11-17T13:26:03Z</time>
      </trkpt>
      <trkpt lat="47.27094" lon="-1.6359">
        <ele>43.8773193</ele>
        <time>2011-11-17T13:26:07Z</time>
      </trkpt>
      <trkpt lat="47.27084" lon="-1.63633">
        <ele>45.3192139</ele>
        <time>2011-11-17T13:26:28Z</time>
      </trkpt>
      <trkpt lat="47.27079" lon="-1.63668">
        <ele>47.2418213</ele>
        <time>2011-11-17T13:26:45Z</time>
      </trkpt>
      <trkpt lat="47.27073" lon="-1.63714">
        <ele>47.2418213</ele>
        <time>2011-11-17T13:27:07Z</time>
      </trkpt>
      <trkpt lat="47.27067" lon="-1.63765">
        <ele>44.838623</ele>
        <time>2011-11-17T13:27:30Z</time>
      </trkpt>
      <trkpt lat="47.27067" lon="-1.63815">
        <ele>43.8773193</ele>
        <time>2011-11-17T13:27:52Z</time>
      </trkpt>
      <trkpt lat="47.2707" lon="-1.63856">
        <ele>43.8773193</ele>
        <time>2011-11-17T13:28:12Z</time>
      </trkpt>
      <trkpt lat="47.27077" lon="-1.639">
        <ele>42.9160156</ele>
        <time>2011-11-17T13:28:33Z</time>
      </trkpt>
      <trkpt lat="47.27094" lon="-1.63926">
        <ele>43.8773193</ele>
        <time>2011-11-17T13:28:52Z</time>
      </trkpt>
      <trkpt lat="47.27109" lon="-1.63959">
        <ele>44.838623</ele>
        <time>2011-11-17T13:29:10Z</time>
      </trkpt>
      <trkpt lat="47.27129" lon="-1.63988">
        <ele>45.7999268</ele>
        <time>2011-11-17T13:29:28Z</time>
      </trkpt>
      <trkpt lat="47.27147" lon="-1.64021">
        <ele>46.2806396</ele>
        <time>2011-11-17T13:29:49Z</time>
      </trkpt>
      <trkpt lat="47.27167" lon="-1.64061">
        <ele>44.838623</ele>
        <time>2011-11-17T13:30:10Z</time>
      </trkpt>
      <trkpt lat="47.27186" lon="-1.64101">
        <ele>44.3580322</ele>
        <time>2011-11-17T13:30:32Z</time>
      </trkpt>
      <trkpt lat="47.27206" lon="-1.64152">
        <ele>42.4354248</ele>
        <time>2011-11-17T13:30:59Z</time>
      </trkpt>
      <trkpt lat="47.27219" lon="-1.6419">
        <ele>40.0321045</ele>
        <time>2011-11-17T13:31:19Z</time>
      </trkpt>
      <trkpt lat="47.27234" lon="-1.64225">
        <ele>38.5900879</ele>
        <time>2011-11-17T13:31:39Z</time>
      </trkpt>
      <trkpt lat="47.27245" lon="-1.64252">
        <ele>41.9547119</ele>
        <time>2011-11-17T13:31:56Z</time>
      </trkpt>
      <trkpt lat="47.27265" lon="-1.64287">
        <ele>41.473999</ele>
        <time>2011-11-17T13:32:18Z</time>
      </trkpt>
      <trkpt lat="47.27281" lon="-1.64315">
        <ele>40.5128174</ele>
        <time>2011-11-17T13:32:36Z</time>
      </trkpt>
      <trkpt lat="47.27293" lon="-1.64344">
        <ele>42.9160156</ele>
        <time>2011-11-17T13:32:53Z</time>
      </trkpt>
      <trkpt lat="47.27313" lon="-1.64376">
        <ele>45.3192139</ele>
        <time>2011-11-17T13:33:16Z</time>
      </trkpt>
      <trkpt lat="47.27339" lon="-1.64413">
        <ele>44.838623</ele>
        <time>2011-11-17T13:33:44Z</time>
      </trkpt>
      <trkpt lat="47.27371" lon="-1.64446">
        <ele>47.7225342</ele>
        <time>2011-11-17T13:34:13Z</time>
      </trkpt>
      <trkpt lat="47.27386" lon="-1.64462">
        <ele>47.7225342</ele>
        <time>2011-11-17T13:34:28Z</time>
      </trkpt>
      <trkpt lat="47.2741" lon="-1.64483">
        <ele>47.7225342</ele>
        <time>2011-11-17T13:34:46Z</time>
      </trkpt>
      <trkpt lat="47.27436" lon="-1.64489">
        <ele>46.7612305</ele>
        <time>2011-11-17T13:35:04Z</time>
      </trkpt>
      <trkpt lat="47.27476" lon="-1.64484">
        <ele>47.2418213</ele>
        <time>2011-11-17T13:35:30Z</time>
      </trkpt>
      <trkpt lat="47.27503" lon="-1.64475">
        <ele>49.6452637</ele>
        <time>2011-11-17T13:35:51Z</time>
      </trkpt>
      <trkpt lat="47.27532" lon="-1.64457">
        <ele>51.0871582</ele>
        <time>2011-11-17T13:36:13Z</time>
      </trkpt>
      <trkpt lat="47.27555" lon="-1.64448">
        <ele>54.932373</ele>
        <time>2011-11-17T13:36:31Z</time>
      </trkpt>
      <trkpt lat="47.27561" lon="-1.6446">
        <ele>56.8551025</ele>
        <time>2011-11-17T13:36:55Z</time>
      </trkpt>
      <trkpt lat="47.27562" lon="-1.64462">
        <ele>56.8551025</ele>
        <time>2011-11-17T13:36:56Z</time>
      </trkpt>
      <trkpt lat="47.27564" lon="-1.64481">
        <ele>55.4130859</ele>
        <time>2011-11-17T13:37:06Z</time>
      </trkpt>
      <trkpt lat="47.27569" lon="-1.64524">
        <ele>53.4904785</ele>
        <time>2011-11-17T13:37:27Z</time>
      </trkpt>
      <trkpt lat="47.27569" lon="-1.64574">
        <ele>49.1645508</ele>
        <time>2011-11-17T13:37:49Z</time>
      </trkpt>
      <trkpt lat="47.27564" lon="-1.64621">
        <ele>48.2033691</ele>
        <time>2011-11-17T13:38:11Z</time>
      </trkpt>
      <trkpt lat="47.27558" lon="-1.64657">
        <ele>50.6065674</ele>
        <time>2011-11-17T13:38:29Z</time>
      </trkpt>
      <trkpt lat="47.27554" lon="-1.647">
        <ele>53.0097656</ele>
        <time>2011-11-17T13:38:50Z</time>
      </trkpt>
      <trkpt lat="47.27551" lon="-1.64739">
        <ele>53.4904785</ele>
        <time>2011-11-17T13:39:09Z</time>
      </trkpt>
      <trkpt lat="47.27539" lon="-1.64789">
        <ele>53.4904785</ele>
        <time>2011-11-17T13:39:35Z</time>
      </trkpt>
      <trkpt lat="47.27529" lon="-1.64836">
        <ele>53.4904785</ele>
        <time>2011-11-17T13:39:57Z</time>
      </trkpt>
      <trkpt lat="47.27533" lon="-1.64882">
        <ele>55.4130859</ele>
        <time>2011-11-17T13:40:19Z</time>
      </trkpt>
      <trkpt lat="47.27536" lon="-1.64934">
        <ele>55.8937988</ele>
        <time>2011-11-17T13:40:43Z</time>
      </trkpt>
      <trkpt lat="47.27536" lon="-1.64987">
        <ele>57.3358154</ele>
        <time>2011-11-17T13:41:08Z</time>
      </trkpt>
      <trkpt lat="47.27547" lon="-1.65038">
        <ele>54.932373</ele>
        <time>2011-11-17T13:41:33Z</time>
      </trkpt>
      <trkpt lat="47.27559" lon="-1.65092">
        <ele>55.8937988</ele>
        <time>2011-11-17T13:42:00Z</time>
      </trkpt>
      <trkpt lat="47.27572" lon="-1.65132">
        <ele>54.4517822</ele>
        <time>2011-11-17T13:42:20Z</time>
      </trkpt>
      <trkpt lat="47.27578" lon="-1.65149">
        <ele>53.0097656</ele>
        <time>2011-11-17T13:42:29Z</time>
      </trkpt>
      <trkpt lat="47.27592" lon="-1.65183">
        <ele>55.4130859</ele>
        <time>2011-11-17T13:42:49Z</time>
      </trkpt>
      <trkpt lat="47.27605" lon="-1.65213">
        <ele>56.8551025</ele>
        <time>2011-11-17T13:43:08Z</time>
      </trkpt>
      <trkpt lat="47.27621" lon="-1.65241">
        <ele>59.2584229</ele>
        <time>2011-11-17T13:43:26Z</time>
      </trkpt>
      <trkpt lat="47.2763" lon="-1.65253">
        <ele>56.3745117</ele>
        <time>2011-11-17T13:43:36Z</time>
      </trkpt>
      <trkpt lat="47.27639" lon="-1.65287">
        <ele>50.1259766</ele>
        <time>2011-11-17T13:43:57Z</time>
      </trkpt>
      <trkpt lat="47.27643" lon="-1.6531">
        <ele>51.0871582</ele>
        <time>2011-11-17T13:44:13Z</time>
      </trkpt>
      <trkpt lat="47.27646" lon="-1.65316">
        <ele>52.5291748</ele>
        <time>2011-11-17T13:44:17Z</time>
      </trkpt>
      <trkpt lat="47.2766" lon="-1.65329">
        <ele>53.0097656</ele>
        <time>2011-11-17T13:44:34Z</time>
      </trkpt>
      <trkpt lat="47.27675" lon="-1.65336">
        <ele>52.048584</ele>
        <time>2011-11-17T13:44:56Z</time>
      </trkpt>
      <trkpt lat="47.2769" lon="-1.65355">
        <ele>57.3358154</ele>
        <time>2011-11-17T13:45:13Z</time>
      </trkpt>
      <trkpt lat="47.27702" lon="-1.6538">
        <ele>58.2971191</ele>
        <time>2011-11-17T13:45:31Z</time>
      </trkpt>
      <trkpt lat="47.27713" lon="-1.65419">
        <ele>57.8165283</ele>
        <time>2011-11-17T13:45:52Z</time>
      </trkpt>
      <trkpt lat="47.27716" lon="-1.65423">
        <ele>55.8937988</ele>
        <time>2011-11-17T13:46:15Z</time>
      </trkpt>
      <trkpt lat="47.27722" lon="-1.6543">
        <ele>54.932373</ele>
        <time>2011-11-17T13:46:29Z</time>
      </trkpt>
      <trkpt lat="47.27746" lon="-1.65438">
        <ele>59.7391357</ele>
        <time>2011-11-17T13:46:51Z</time>
      </trkpt>
      <trkpt lat="47.27775" lon="-1.65446">
        <ele>59.7391357</ele>
        <time>2011-11-17T13:47:12Z</time>
      </trkpt>
      <trkpt lat="47.27802" lon="-1.6545">
        <ele>53.4904785</ele>
        <time>2011-11-17T13:47:31Z</time>
      </trkpt>
      <trkpt lat="47.2783" lon="-1.65459">
        <ele>53.0097656</ele>
        <time>2011-11-17T13:47:52Z</time>
      </trkpt>
      <trkpt lat="47.27858" lon="-1.6546">
        <ele>56.3745117</ele>
        <time>2011-11-17T13:48:10Z</time>
      </trkpt>
      <trkpt lat="47.27882" lon="-1.65472">
        <ele>54.4517822</ele>
        <time>2011-11-17T13:48:29Z</time>
      </trkpt>
      <trkpt lat="47.27887" lon="-1.65482">
        <ele>55.8937988</ele>
        <time>2011-11-17T13:48:36Z</time>
      </trkpt>
      <trkpt lat="47.27892" lon="-1.65489">
        <ele>56.3745117</ele>
        <time>2011-11-17T13:48:40Z</time>
      </trkpt>
      <trkpt lat="47.27913" lon="-1.65527">
        <ele>55.8937988</ele>
        <time>2011-11-17T13:49:00Z</time>
      </trkpt>
      <trkpt lat="47.27918" lon="-1.65565">
        <ele>56.8551025</ele>
        <time>2011-11-17T13:49:20Z</time>
      </trkpt>
      <trkpt lat="47.27923" lon="-1.656">
        <ele>58.77771</ele>
        <time>2011-11-17T13:49:38Z</time>
      </trkpt>
      <trkpt lat="47.27923" lon="-1.6561">
        <ele>59.7391357</ele>
        <time>2011-11-17T13:49:43Z</time>
      </trkpt>
      <trkpt lat="47.27929" lon="-1.65656">
        <ele>61.6617432</ele>
        <time>2011-11-17T13:50:05Z</time>
      </trkpt>
      <trkpt lat="47.27926" lon="-1.65693">
        <ele>59.7391357</ele>
        <time>2011-11-17T13:50:24Z</time>
      </trkpt>
      <trkpt lat="47.27923" lon="-1.6573">
        <ele>60.2197266</ele>
        <time>2011-11-17T13:50:44Z</time>
      </trkpt>
      <trkpt lat="47.27922" lon="-1.65778">
        <ele>60.2197266</ele>
        <time>2011-11-17T13:51:06Z</time>
      </trkpt>
      <trkpt lat="47.27922" lon="-1.65832">
        <ele>60.2197266</ele>
        <time>2011-11-17T13:51:32Z</time>
      </trkpt>
      <trkpt lat="47.27921" lon="-1.65875">
        <ele>60.7003174</ele>
        <time>2011-11-17T13:51:53Z</time>
      </trkpt>
      <trkpt lat="47.27928" lon="-1.65912">
        <ele>60.2197266</ele>
        <time>2011-11-17T13:52:12Z</time>
      </trkpt>
      <trkpt lat="47.27932" lon="-1.6595">
        <ele>61.6617432</ele>
        <time>2011-11-17T13:52:29Z</time>
      </trkpt>
      <trkpt lat="47.27932" lon="-1.65952">
        <ele>61.6617432</ele>
        <time>2011-11-17T13:52:30Z</time>
      </trkpt>
      <trkpt lat="47.27933" lon="-1.6598">
        <ele>65.9876709</ele>
        <time>2011-11-17T13:52:46Z</time>
      </trkpt>
      <trkpt lat="47.27936" lon="-1.66016">
        <ele>68.3908691</ele>
        <time>2011-11-17T13:53:03Z</time>
      </trkpt>
      <trkpt lat="47.27943" lon="-1.66049">
        <ele>66.9489746</ele>
        <time>2011-11-17T13:53:20Z</time>
      </trkpt>
      <trkpt lat="47.2795" lon="-1.66066">
        <ele>67.9102783</ele>
        <time>2011-11-17T13:53:30Z</time>
      </trkpt>
      <trkpt lat="47.27977" lon="-1.66086">
        <ele>63.5843506</ele>
        <time>2011-11-17T13:53:51Z</time>
      </trkpt>
      <trkpt lat="47.28004" lon="-1.66078">
        <ele>64.5456543</ele>
        <time>2011-11-17T13:54:12Z</time>
      </trkpt>
      <trkpt lat="47.28042" lon="-1.66079">
        <ele>59.2584229</ele>
        <time>2011-11-17T13:54:37Z</time>
      </trkpt>
      <trkpt lat="47.28069" lon="-1.66084">
        <ele>59.2584229</ele>
        <time>2011-11-17T13:54:55Z</time>
      </trkpt>
      <trkpt lat="47.28099" lon="-1.66083">
        <ele>59.2584229</ele>
        <time>2011-11-17T13:55:16Z</time>
      </trkpt>
      <trkpt lat="47.28129" lon="-1.66087">
        <ele>56.8551025</ele>
        <time>2011-11-17T13:55:38Z</time>
      </trkpt>
      <trkpt lat="47.28141" lon="-1.66138">
        <ele>59.7391357</ele>
        <time>2011-11-17T13:56:02Z</time>
      </trkpt>
      <trkpt lat="47.2815" lon="-1.66188">
        <ele>58.2971191</ele>
        <time>2011-11-17T13:56:27Z</time>
      </trkpt>
      <trkpt lat="47.2816" lon="-1.66229">
        <ele>56.8551025</ele>
        <time>2011-11-17T13:56:47Z</time>
      </trkpt>
      <trkpt lat="47.28169" lon="-1.66279">
        <ele>53.0097656</ele>
        <time>2011-11-17T13:57:11Z</time>
      </trkpt>
      <trkpt lat="47.28178" lon="-1.66324">
        <ele>51.5678711</ele>
        <time>2011-11-17T13:57:34Z</time>
      </trkpt>
      <trkpt lat="47.28184" lon="-1.66352">
        <ele>51.0871582</ele>
        <time>2011-11-17T13:57:49Z</time>
      </trkpt>
      <trkpt lat="47.28174" lon="-1.66376">
        <ele>54.932373</ele>
        <time>2011-11-17T13:58:07Z</time>
      </trkpt>
      <trkpt lat="47.28142" lon="-1.66406">
        <ele>56.8551025</ele>
        <time>2011-11-17T13:58:36Z</time>
      </trkpt>
      <trkpt lat="47.28114" lon="-1.66425">
        <ele>57.3358154</ele>
        <time>2011-11-17T13:58:57Z</time>
      </trkpt>
      <trkpt lat="47.28085" lon="-1.66446">
        <ele>55.4130859</ele>
        <time>2011-11-17T13:59:19Z</time>
      </trkpt>
      <trkpt lat="47.2806" lon="-1.66461">
        <ele>54.4517822</ele>
        <time>2011-11-17T13:59:39Z</time>
      </trkpt>
      <trkpt lat="47.28034" lon="-1.66478">
        <ele>53.4904785</ele>
        <time>2011-11-17T13:59:57Z</time>
      </trkpt>
      <trkpt lat="47.28005" lon="-1.66488">
        <ele>53.9711914</ele>
        <time>2011-11-17T14:00:17Z</time>
      </trkpt>
      <trkpt lat="47.27994" lon="-1.66491">
        <ele>51.5678711</ele>
        <time>2011-11-17T14:00:26Z</time>
      </trkpt>
      <trkpt lat="47.28007" lon="-1.66518">
        <ele>51.5678711</ele>
        <time>2011-11-17T14:00:45Z</time>
      </trkpt>
      <trkpt lat="47.28028" lon="-1.66546">
        <ele>53.0097656</ele>
        <time>2011-11-17T14:01:06Z</time>
      </trkpt>
      <trkpt lat="47.28049" lon="-1.66574">
        <ele>58.2971191</ele>
        <time>2011-11-17T14:01:28Z</time>
      </trkpt>
      <trkpt lat="47.28072" lon="-1.66602">
        <ele>56.3745117</ele>
        <time>2011-11-17T14:01:49Z</time>
      </trkpt>
      <trkpt lat="47.28089" lon="-1.66629">
        <ele>55.4130859</ele>
        <time>2011-11-17T14:02:08Z</time>
      </trkpt>
      <trkpt lat="47.28093" lon="-1.66633">
        <ele>55.4130859</ele>
        <time>2011-11-17T14:02:11Z</time>
      </trkpt>
      <trkpt lat="47.28095" lon="-1.66649">
        <ele>55.8937988</ele>
        <time>2011-11-17T14:02:19Z</time>
      </trkpt>
      <trkpt lat="47.28089" lon="-1.66687">
        <ele>60.2197266</ele>
        <time>2011-11-17T14:02:40Z</time>
      </trkpt>
      <trkpt lat="47.28082" lon="-1.6673">
        <ele>61.6617432</ele>
        <time>2011-11-17T14:03:02Z</time>
      </trkpt>
      <trkpt lat="47.28078" lon="-1.66772">
        <ele>57.3358154</ele>
        <time>2011-11-17T14:03:22Z</time>
      </trkpt>
      <trkpt lat="47.28072" lon="-1.66805">
        <ele>55.4130859</ele>
        <time>2011-11-17T14:03:39Z</time>
      </trkpt>
      <trkpt lat="47.28066" lon="-1.66848">
        <ele>54.4517822</ele>
        <time>2011-11-17T14:04:00Z</time>
      </trkpt>
      <trkpt lat="47.28061" lon="-1.66891">
        <ele>55.4130859</ele>
        <time>2011-11-17T14:04:20Z</time>
      </trkpt>
      <trkpt lat="47.28055" lon="-1.66928">
        <ele>56.8551025</ele>
        <time>2011-11-17T14:04:41Z</time>
      </trkpt>
      <trkpt lat="47.28047" lon="-1.66966">
        <ele>56.3745117</ele>
        <time>2011-11-17T14:05:00Z</time>
      </trkpt>
      <trkpt lat="47.28037" lon="-1.67004">
        <ele>53.9711914</ele>
        <time>2011-11-17T14:05:20Z</time>
      </trkpt>
      <trkpt lat="47.28027" lon="-1.6704">
        <ele>53.4904785</ele>
        <time>2011-11-17T14:05:40Z</time>
      </trkpt>
      <trkpt lat="47.28019" lon="-1.67079">
        <ele>51.0871582</ele>
        <time>2011-11-17T14:06:00Z</time>
      </trkpt>
      <trkpt lat="47.28012" lon="-1.67118">
        <ele>52.048584</ele>
        <time>2011-11-17T14:06:20Z</time>
      </trkpt>
      <trkpt lat="47.27999" lon="-1.67159">
        <ele>54.932373</ele>
        <time>2011-11-17T14:06:43Z</time>
      </trkpt>
      <trkpt lat="47.27985" lon="-1.67201">
        <ele>54.4517822</ele>
        <time>2011-11-17T14:07:05Z</time>
      </trkpt>
      <trkpt lat="47.27974" lon="-1.6724">
        <ele>54.4517822</ele>
        <time>2011-11-17T14:07:24Z</time>
      </trkpt>
      <trkpt lat="47.27961" lon="-1.67287">
        <ele>55.4130859</ele>
        <time>2011-11-17T14:07:50Z</time>
      </trkpt>
      <trkpt lat="47.27946" lon="-1.67334">
        <ele>54.4517822</ele>
        <time>2011-11-17T14:08:14Z</time>
      </trkpt>
      <trkpt lat="47.27934" lon="-1.67372">
        <ele>51.5678711</ele>
        <time>2011-11-17T14:08:35Z</time>
      </trkpt>
      <trkpt lat="47.27922" lon="-1.67413">
        <ele>54.932373</ele>
        <time>2011-11-17T14:08:58Z</time>
      </trkpt>
      <trkpt lat="47.27919" lon="-1.67423">
        <ele>54.932373</ele>
        <time>2011-11-17T14:09:04Z</time>
      </trkpt>
      <trkpt lat="47.27923" lon="-1.6743">
        <ele>54.4517822</ele>
        <time>2011-11-17T14:09:09Z</time>
      </trkpt>
      <trkpt lat="47.27955" lon="-1.67441">
        <ele>50.1259766</ele>
        <time>2011-11-17T14:09:34Z</time>
      </trkpt>
      <trkpt lat="47.27989" lon="-1.67454">
        <ele>48.68396</ele>
        <time>2011-11-17T14:09:59Z</time>
      </trkpt>
      <trkpt lat="47.28015" lon="-1.67481">
        <ele>52.5291748</ele>
        <time>2011-11-17T14:10:22Z</time>
      </trkpt>
      <trkpt lat="47.28011" lon="-1.67531">
        <ele>56.3745117</ele>
        <time>2011-11-17T14:10:47Z</time>
      </trkpt>
      <trkpt lat="47.28006" lon="-1.67573">
        <ele>53.4904785</ele>
        <time>2011-11-17T14:11:10Z</time>
      </trkpt>
      <trkpt lat="47.28001" lon="-1.67626">
        <ele>52.048584</ele>
        <time>2011-11-17T14:11:35Z</time>
      </trkpt>
      <trkpt lat="47.28" lon="-1.67673">
        <ele>50.1259766</ele>
        <time>2011-11-17T14:11:58Z</time>
      </trkpt>
      <trkpt lat="47.27989" lon="-1.67733">
        <ele>50.1259766</ele>
        <time>2011-11-17T14:12:29Z</time>
      </trkpt>
      <trkpt lat="47.27957" lon="-1.67743">
        <ele>49.6452637</ele>
        <time>2011-11-17T14:12:51Z</time>
      </trkpt>
      <trkpt lat="47.27932" lon="-1.67748">
        <ele>48.2033691</ele>
        <time>2011-11-17T14:13:09Z</time>
      </trkpt>
      <trkpt lat="47.27908" lon="-1.67759">
        <ele>52.048584</ele>
        <time>2011-11-17T14:13:28Z</time>
      </trkpt>
      <trkpt lat="47.2788" lon="-1.6777">
        <ele>57.8165283</ele>
        <time>2011-11-17T14:13:50Z</time>
      </trkpt>
      <trkpt lat="47.27853" lon="-1.67766">
        <ele>57.8165283</ele>
        <time>2011-11-17T14:14:10Z</time>
      </trkpt>
      <trkpt lat="47.27827" lon="-1.67769">
        <ele>57.3358154</ele>
        <time>2011-11-17T14:14:29Z</time>
      </trkpt>
      <trkpt lat="47.27826" lon="-1.67769">
        <ele>57.3358154</ele>
        <time>2011-11-17T14:14:30Z</time>
      </trkpt>
      <trkpt lat="47.278" lon="-1.6779">
        <ele>55.8937988</ele>
        <time>2011-11-17T14:14:51Z</time>
      </trkpt>
      <trkpt lat="47.2778" lon="-1.67814">
        <ele>58.2971191</ele>
        <time>2011-11-17T14:15:10Z</time>
      </trkpt>
      <trkpt lat="47.27758" lon="-1.67837">
        <ele>57.8165283</ele>
        <time>2011-11-17T14:15:31Z</time>
      </trkpt>
      <trkpt lat="47.27733" lon="-1.67869">
        <ele>57.8165283</ele>
        <time>2011-11-17T14:15:53Z</time>
      </trkpt>
      <trkpt lat="47.27714" lon="-1.67903">
        <ele>61.1810303</ele>
        <time>2011-11-17T14:16:15Z</time>
      </trkpt>
      <trkpt lat="47.27689" lon="-1.67931">
        <ele>62.6229248</ele>
        <time>2011-11-17T14:16:35Z</time>
      </trkpt>
      <trkpt lat="47.27671" lon="-1.6796">
        <ele>66.9489746</ele>
        <time>2011-11-17T14:16:55Z</time>
      </trkpt>
      <trkpt lat="47.27647" lon="-1.67993">
        <ele>64.0650635</ele>
        <time>2011-11-17T14:17:18Z</time>
      </trkpt>
      <trkpt lat="47.27632" lon="-1.68011">
        <ele>61.1810303</ele>
        <time>2011-11-17T14:17:32Z</time>
      </trkpt>
      <trkpt lat="47.27603" lon="-1.68017">
        <ele>61.6617432</ele>
        <time>2011-11-17T14:17:54Z</time>
      </trkpt>
      <trkpt lat="47.27565" lon="-1.68015">
        <ele>61.1810303</ele>
        <time>2011-11-17T14:18:21Z</time>
      </trkpt>
      <trkpt lat="47.27557" lon="-1.68038">
        <ele>59.2584229</ele>
        <time>2011-11-17T14:18:36Z</time>
      </trkpt>
      <trkpt lat="47.27547" lon="-1.6804">
        <ele>57.3358154</ele>
        <time>2011-11-17T14:18:43Z</time>
      </trkpt>
      <trkpt lat="47.27537" lon="-1.68046">
        <ele>57.3358154</ele>
        <time>2011-11-17T14:18:50Z</time>
      </trkpt>
      <trkpt lat="47.27534" lon="-1.68055">
        <ele>56.3745117</ele>
        <time>2011-11-17T14:18:54Z</time>
      </trkpt>
      <trkpt lat="47.27528" lon="-1.68097">
        <ele>53.9711914</ele>
        <time>2011-11-17T14:19:14Z</time>
      </trkpt>
      <trkpt lat="47.2752" lon="-1.68137">
        <ele>53.0097656</ele>
        <time>2011-11-17T14:19:34Z</time>
      </trkpt>
      <trkpt lat="47.27514" lon="-1.68176">
        <ele>51.0871582</ele>
        <time>2011-11-17T14:19:53Z</time>
      </trkpt>
      <trkpt lat="47.27511" lon="-1.68217">
        <ele>51.0871582</ele>
        <time>2011-11-17T14:20:13Z</time>
      </trkpt>
      <trkpt lat="47.27509" lon="-1.68265">
        <ele>51.5678711</ele>
        <time>2011-11-17T14:20:35Z</time>
      </trkpt>
      <trkpt lat="47.27509" lon="-1.68312">
        <ele>51.0871582</ele>
        <time>2011-11-17T14:20:58Z</time>
      </trkpt>
      <trkpt lat="47.27509" lon="-1.68334">
        <ele>47.2418213</ele>
        <time>2011-11-17T14:21:09Z</time>
      </trkpt>
      <trkpt lat="47.27503" lon="-1.68354">
        <ele>45.3192139</ele>
        <time>2011-11-17T14:21:27Z</time>
      </trkpt>
      <trkpt lat="47.27491" lon="-1.68372">
        <ele>45.7999268</ele>
        <time>2011-11-17T14:21:46Z</time>
      </trkpt>
      <trkpt lat="47.27477" lon="-1.68387">
        <ele>50.6065674</ele>
        <time>2011-11-17T14:22:12Z</time>
      </trkpt>
      <trkpt lat="47.27473" lon="-1.68416">
        <ele>50.1259766</ele>
        <time>2011-11-17T14:22:33Z</time>
      </trkpt>
      <trkpt lat="47.27478" lon="-1.68457">
        <ele>45.3192139</ele>
        <time>2011-11-17T14:22:55Z</time>
      </trkpt>
      <trkpt lat="47.27482" lon="-1.68465">
        <ele>43.3966064</ele>
        <time>2011-11-17T14:23:01Z</time>
      </trkpt>
      <trkpt lat="47.27463" lon="-1.68504">
        <ele>33.7834473</ele>
        <time>2011-11-17T14:23:18Z</time>
      </trkpt>
      <trkpt lat="47.2745" lon="-1.68515">
        <ele>30.4188232</ele>
        <time>2011-11-17T14:23:34Z</time>
      </trkpt>
      <trkpt lat="47.27448" lon="-1.68531">
        <ele>30.8995361</ele>
        <time>2011-11-17T14:23:49Z</time>
      </trkpt>
      <trkpt lat="47.27444" lon="-1.68543">
        <ele>34.2641602</ele>
        <time>2011-11-17T14:23:58Z</time>
      </trkpt>
      <trkpt lat="47.27436" lon="-1.6855">
        <ele>37.6286621</ele>
        <time>2011-11-17T14:24:06Z</time>
      </trkpt>
      <trkpt lat="47.27422" lon="-1.68571">
        <ele>39.5512695</ele>
        <time>2011-11-17T14:24:26Z</time>
      </trkpt>
      <trkpt lat="47.27418" lon="-1.68573">
        <ele>40.0321045</ele>
        <time>2011-11-17T14:24:30Z</time>
      </trkpt>
      <trkpt lat="47.27404" lon="-1.68586">
        <ele>46.2806396</ele>
        <time>2011-11-17T14:24:50Z</time>
      </trkpt>
      <trkpt lat="47.27404" lon="-1.68588">
        <ele>46.7612305</ele>
        <time>2011-11-17T14:24:51Z</time>
      </trkpt>
      <trkpt lat="47.27386" lon="-1.6861">
        <ele>47.2418213</ele>
        <time>2011-11-17T14:25:08Z</time>
      </trkpt>
      <trkpt lat="47.27368" lon="-1.68633">
        <ele>45.7999268</ele>
        <time>2011-11-17T14:25:26Z</time>
      </trkpt>
      <trkpt lat="47.2734" lon="-1.6867">
        <ele>42.9160156</ele>
        <time>2011-11-17T14:25:53Z</time>
      </trkpt>
      <trkpt lat="47.27324" lon="-1.68692">
        <ele>44.838623</ele>
        <time>2011-11-17T14:26:10Z</time>
      </trkpt>
      <trkpt lat="47.27299" lon="-1.68706">
        <ele>45.7999268</ele>
        <time>2011-11-17T14:26:28Z</time>
      </trkpt>
      <trkpt lat="47.27271" lon="-1.68726">
        <ele>47.7225342</ele>
        <time>2011-11-17T14:26:51Z</time>
      </trkpt>
      <trkpt lat="47.27249" lon="-1.68748">
        <ele>49.1645508</ele>
        <time>2011-11-17T14:27:13Z</time>
      </trkpt>
      <trkpt lat="47.27228" lon="-1.68778">
        <ele>47.7225342</ele>
        <time>2011-11-17T14:27:33Z</time>
      </trkpt>
      <trkpt lat="47.27209" lon="-1.68806">
        <ele>50.1259766</ele>
        <time>2011-11-17T14:27:55Z</time>
      </trkpt>
      <trkpt lat="47.27199" lon="-1.68826">
        <ele>52.5291748</ele>
        <time>2011-11-17T14:28:13Z</time>
      </trkpt>
      <trkpt lat="47.27199" lon="-1.68826">
        <ele>53.0097656</ele>
        <time>2011-11-17T14:28:56Z</time>
      </trkpt>
      <trkpt lat="47.27211" lon="-1.68801">
        <ele>50.6065674</ele>
        <time>2011-11-17T14:29:14Z</time>
      </trkpt>
      <trkpt lat="47.27211" lon="-1.68798">
        <ele>51.0871582</ele>
        <time>2011-11-17T14:29:50Z</time>
      </trkpt>
      <trkpt lat="47.27205" lon="-1.68819">
        <ele>51.5678711</ele>
        <time>2011-11-17T14:29:59Z</time>
      </trkpt>
      <trkpt lat="47.27198" lon="-1.68824">
        <ele>48.68396</ele>
        <time>2011-11-17T14:30:23Z</time>
      </trkpt>
      <trkpt lat="47.27199" lon="-1.68826">
        <ele>50.6065674</ele>
        <time>2011-11-17T14:30:48Z</time>
      </trkpt>
      <trkpt lat="47.27199" lon="-1.68825">
        <ele>51.0871582</ele>
        <time>2011-11-17T14:31:29Z</time>
      </trkpt>
      <trkpt lat="47.27198" lon="-1.68825">
        <ele>52.5291748</ele>
        <time>2011-11-17T14:34:38Z</time>
      </trkpt>
      <trkpt lat="47.27181" lon="-1.68861">
        <ele>55.8937988</ele>
        <time>2011-11-17T14:34:58Z</time>
      </trkpt>
      <trkpt lat="47.27161" lon="-1.68865">
        <ele>56.3745117</ele>
        <time>2011-11-17T14:35:13Z</time>
      </trkpt>
      <trkpt lat="47.27135" lon="-1.68833">
        <ele>56.8551025</ele>
        <time>2011-11-17T14:35:38Z</time>
      </trkpt>
      <trkpt lat="47.27113" lon="-1.68804">
        <ele>54.4517822</ele>
        <time>2011-11-17T14:36:01Z</time>
      </trkpt>
      <trkpt lat="47.27086" lon="-1.68773">
        <ele>55.4130859</ele>
        <time>2011-11-17T14:36:25Z</time>
      </trkpt>
      <trkpt lat="47.27083" lon="-1.68767">
        <ele>55.8937988</ele>
        <time>2011-11-17T14:36:34Z</time>
      </trkpt>
      <trkpt lat="47.27102" lon="-1.68735">
        <ele>53.4904785</ele>
        <time>2011-11-17T14:36:56Z</time>
      </trkpt>
      <trkpt lat="47.27106" lon="-1.68729">
        <ele>52.5291748</ele>
        <time>2011-11-17T14:37:00Z</time>
      </trkpt>
      <trkpt lat="47.27118" lon="-1.687">
        <ele>50.6065674</ele>
        <time>2011-11-17T14:37:18Z</time>
      </trkpt>
      <trkpt lat="47.27116" lon="-1.68691">
        <ele>52.048584</ele>
        <time>2011-11-17T14:37:23Z</time>
      </trkpt>
      <trkpt lat="47.27098" lon="-1.68662">
        <ele>57.8165283</ele>
        <time>2011-11-17T14:37:40Z</time>
      </trkpt>
      <trkpt lat="47.27078" lon="-1.68633">
        <ele>52.5291748</ele>
        <time>2011-11-17T14:38:00Z</time>
      </trkpt>
      <trkpt lat="47.27079" lon="-1.68618">
        <ele>52.048584</ele>
        <time>2011-11-17T14:38:06Z</time>
      </trkpt>
      <trkpt lat="47.27096" lon="-1.68565">
        <ele>49.6452637</ele>
        <time>2011-11-17T14:38:32Z</time>
      </trkpt>
      <trkpt lat="47.27104" lon="-1.68521">
        <ele>50.1259766</ele>
        <time>2011-11-17T14:38:57Z</time>
      </trkpt>
      <trkpt lat="47.27133" lon="-1.68504">
        <ele>46.7612305</ele>
        <time>2011-11-17T14:39:17Z</time>
      </trkpt>
      <trkpt lat="47.27166" lon="-1.68497">
        <ele>44.3580322</ele>
        <time>2011-11-17T14:39:40Z</time>
      </trkpt>
      <trkpt lat="47.27184" lon="-1.68474">
        <ele>44.3580322</ele>
        <time>2011-11-17T14:39:59Z</time>
      </trkpt>
      <trkpt lat="47.27203" lon="-1.68449">
        <ele>43.8773193</ele>
        <time>2011-11-17T14:40:18Z</time>
      </trkpt>
      <trkpt lat="47.27217" lon="-1.6843">
        <ele>39.0706787</ele>
        <time>2011-11-17T14:40:33Z</time>
      </trkpt>
      <trkpt lat="47.27197" lon="-1.68403">
        <ele>40.9934082</ele>
        <time>2011-11-17T14:40:53Z</time>
      </trkpt>
      <trkpt lat="47.27178" lon="-1.68359">
        <ele>39.0706787</ele>
        <time>2011-11-17T14:41:17Z</time>
      </trkpt>
      <trkpt lat="47.27163" lon="-1.68327">
        <ele>40.9934082</ele>
        <time>2011-11-17T14:41:36Z</time>
      </trkpt>
      <trkpt lat="47.27149" lon="-1.68289">
        <ele>44.838623</ele>
        <time>2011-11-17T14:41:56Z</time>
      </trkpt>
      <trkpt lat="47.27134" lon="-1.68256">
        <ele>41.473999</ele>
        <time>2011-11-17T14:42:15Z</time>
      </trkpt>
      <trkpt lat="47.27114" lon="-1.6823">
        <ele>42.4354248</ele>
        <time>2011-11-17T14:42:34Z</time>
      </trkpt>
      <trkpt lat="47.27093" lon="-1.68215">
        <ele>41.9547119</ele>
        <time>2011-11-17T14:42:53Z</time>
      </trkpt>
      <trkpt lat="47.27073" lon="-1.6819">
        <ele>39.0706787</ele>
        <time>2011-11-17T14:43:13Z</time>
      </trkpt>
      <trkpt lat="47.27071" lon="-1.6819">
        <ele>38.5900879</ele>
        <time>2011-11-17T14:43:14Z</time>
      </trkpt>
      <trkpt lat="47.27071" lon="-1.68174">
        <ele>39.0706787</ele>
        <time>2011-11-17T14:43:20Z</time>
      </trkpt>
      <trkpt lat="47.2708" lon="-1.68133">
        <ele>30.8995361</ele>
        <time>2011-11-17T14:43:39Z</time>
      </trkpt>
      <trkpt lat="47.27063" lon="-1.68113">
        <ele>27.5349121</ele>
        <time>2011-11-17T14:43:57Z</time>
      </trkpt>
      <trkpt lat="47.27047" lon="-1.68082">
        <ele>29.9381104</ele>
        <time>2011-11-17T14:44:15Z</time>
      </trkpt>
      <trkpt lat="47.27035" lon="-1.68041">
        <ele>22.7282715</ele>
        <time>2011-11-17T14:44:37Z</time>
      </trkpt>
      <trkpt lat="47.27029" lon="-1.6804">
        <ele>23.2089844</ele>
        <time>2011-11-17T14:44:42Z</time>
      </trkpt>
      <trkpt lat="47.27027" lon="-1.68025">
        <ele>23.6895752</ele>
        <time>2011-11-17T14:44:49Z</time>
      </trkpt>
      <trkpt lat="47.27026" lon="-1.67985">
        <ele>21.286377</ele>
        <time>2011-11-17T14:45:08Z</time>
      </trkpt>
      <trkpt lat="47.27029" lon="-1.67953">
        <ele>17.9217529</ele>
        <time>2011-11-17T14:45:26Z</time>
      </trkpt>
      <trkpt lat="47.27032" lon="-1.67935">
        <ele>17.4411621</ele>
        <time>2011-11-17T14:45:35Z</time>
      </trkpt>
      <trkpt lat="47.27034" lon="-1.67926">
        <ele>17.9217529</ele>
        <time>2011-11-17T14:45:39Z</time>
      </trkpt>
      <trkpt lat="47.27042" lon="-1.67887">
        <ele>19.8443604</ele>
        <time>2011-11-17T14:46:00Z</time>
      </trkpt>
      <trkpt lat="47.27055" lon="-1.67854">
        <ele>24.651001</ele>
        <time>2011-11-17T14:46:17Z</time>
      </trkpt>
      <trkpt lat="47.27071" lon="-1.6782">
        <ele>25.6123047</ele>
        <time>2011-11-17T14:46:36Z</time>
      </trkpt>
      <trkpt lat="47.27076" lon="-1.67792">
        <ele>22.7282715</ele>
        <time>2011-11-17T14:46:52Z</time>
      </trkpt>
      <trkpt lat="47.27088" lon="-1.67757">
        <ele>24.1702881</ele>
        <time>2011-11-17T14:47:10Z</time>
      </trkpt>
      <trkpt lat="47.27099" lon="-1.67719">
        <ele>24.651001</ele>
        <time>2011-11-17T14:47:28Z</time>
      </trkpt>
      <trkpt lat="47.27099" lon="-1.67686">
        <ele>23.6895752</ele>
        <time>2011-11-17T14:47:47Z</time>
      </trkpt>
      <trkpt lat="47.271" lon="-1.67675">
        <ele>24.651001</ele>
        <time>2011-11-17T14:47:52Z</time>
      </trkpt>
      <trkpt lat="47.27094" lon="-1.67638">
        <ele>26.0928955</ele>
        <time>2011-11-17T14:48:12Z</time>
      </trkpt>
      <trkpt lat="47.2709" lon="-1.67602">
        <ele>28.9769287</ele>
        <time>2011-11-17T14:48:31Z</time>
      </trkpt>
      <trkpt lat="47.27082" lon="-1.6759">
        <ele>28.0155029</ele>
        <time>2011-11-17T14:48:40Z</time>
      </trkpt>
      <trkpt lat="47.27073" lon="-1.67549">
        <ele>29.4575195</ele>
        <time>2011-11-17T14:49:00Z</time>
      </trkpt>
      <trkpt lat="47.27069" lon="-1.67522">
        <ele>28.9769287</ele>
        <time>2011-11-17T14:49:11Z</time>
      </trkpt>
      <trkpt lat="47.27071" lon="-1.67499">
        <ele>27.5349121</ele>
        <time>2011-11-17T14:49:22Z</time>
      </trkpt>
      <trkpt lat="47.27066" lon="-1.67467">
        <ele>22.7282715</ele>
        <time>2011-11-17T14:49:41Z</time>
      </trkpt>
      <trkpt lat="47.27069" lon="-1.67437">
        <ele>17.9217529</ele>
        <time>2011-11-17T14:49:54Z</time>
      </trkpt>
      <trkpt lat="47.27068" lon="-1.67402">
        <ele>16.4797363</ele>
        <time>2011-11-17T14:50:12Z</time>
      </trkpt>
      <trkpt lat="47.27063" lon="-1.67368">
        <ele>19.3637695</ele>
        <time>2011-11-17T14:50:29Z</time>
      </trkpt>
      <trkpt lat="47.27066" lon="-1.67359">
        <ele>20.3249512</ele>
        <time>2011-11-17T14:50:34Z</time>
      </trkpt>
      <trkpt lat="47.27073" lon="-1.67352">
        <ele>17.4411621</ele>
        <time>2011-11-17T14:50:40Z</time>
      </trkpt>
      <trkpt lat="47.27086" lon="-1.67344">
        <ele>18.8830566</ele>
        <time>2011-11-17T14:50:48Z</time>
      </trkpt>
      <trkpt lat="47.27111" lon="-1.67355">
        <ele>21.7669678</ele>
        <time>2011-11-17T14:51:10Z</time>
      </trkpt>
      <trkpt lat="47.2711" lon="-1.67352">
        <ele>25.6123047</ele>
        <time>2011-11-17T14:51:13Z</time>
      </trkpt>
      <trkpt lat="47.27114" lon="-1.67318">
        <ele>26.0928955</ele>
        <time>2011-11-17T14:51:33Z</time>
      </trkpt>
      <trkpt lat="47.27126" lon="-1.6728">
        <ele>27.5349121</ele>
        <time>2011-11-17T14:51:54Z</time>
      </trkpt>
      <trkpt lat="47.27119" lon="-1.6725">
        <ele>28.0155029</ele>
        <time>2011-11-17T14:52:14Z</time>
      </trkpt>
      <trkpt lat="47.27103" lon="-1.67225">
        <ele>30.4188232</ele>
        <time>2011-11-17T14:52:34Z</time>
      </trkpt>
      <trkpt lat="47.27082" lon="-1.67206">
        <ele>35.2254639</ele>
        <time>2011-11-17T14:52:54Z</time>
      </trkpt>
      <trkpt lat="47.27052" lon="-1.67195">
        <ele>40.9934082</ele>
        <time>2011-11-17T14:53:14Z</time>
      </trkpt>
      <trkpt lat="47.27032" lon="-1.67195">
        <ele>40.5128174</ele>
        <time>2011-11-17T14:53:33Z</time>
      </trkpt>
      <trkpt lat="47.27003" lon="-1.67184">
        <ele>34.744873</ele>
        <time>2011-11-17T14:53:53Z</time>
      </trkpt>
      <trkpt lat="47.26978" lon="-1.6719">
        <ele>30.4188232</ele>
        <time>2011-11-17T14:54:09Z</time>
      </trkpt>
      <trkpt lat="47.26954" lon="-1.67199">
        <ele>32.3415527</ele>
        <time>2011-11-17T14:54:26Z</time>
      </trkpt>
      <trkpt lat="47.26927" lon="-1.67211">
        <ele>37.6286621</ele>
        <time>2011-11-17T14:54:45Z</time>
      </trkpt>
      <trkpt lat="47.26901" lon="-1.67203">
        <ele>33.3028564</ele>
        <time>2011-11-17T14:55:03Z</time>
      </trkpt>
      <trkpt lat="47.26871" lon="-1.67183">
        <ele>22.7282715</ele>
        <time>2011-11-17T14:55:26Z</time>
      </trkpt>
      <trkpt lat="47.2685" lon="-1.67156">
        <ele>20.3249512</ele>
        <time>2011-11-17T14:55:46Z</time>
      </trkpt>
      <trkpt lat="47.26823" lon="-1.67147">
        <ele>21.286377</ele>
        <time>2011-11-17T14:56:07Z</time>
      </trkpt>
      <trkpt lat="47.26799" lon="-1.67144">
        <ele>25.1317139</ele>
        <time>2011-11-17T14:56:25Z</time>
      </trkpt>
      <trkpt lat="47.2679" lon="-1.67129">
        <ele>23.2089844</ele>
        <time>2011-11-17T14:56:41Z</time>
      </trkpt>
      <trkpt lat="47.26789" lon="-1.67125">
        <ele>24.1702881</ele>
        <time>2011-11-17T14:56:44Z</time>
      </trkpt>
      <trkpt lat="47.26791" lon="-1.67118">
        <ele>20.8056641</ele>
        <time>2011-11-17T14:56:48Z</time>
      </trkpt>
      <trkpt lat="47.26824" lon="-1.67109">
        <ele>25.1317139</ele>
        <time>2011-11-17T14:57:08Z</time>
      </trkpt>
      <trkpt lat="47.26844" lon="-1.67111">
        <ele>22.7282715</ele>
        <time>2011-11-17T14:57:23Z</time>
      </trkpt>
      <trkpt lat="47.26853" lon="-1.6712">
        <ele>22.2475586</ele>
        <time>2011-11-17T14:57:34Z</time>
      </trkpt>
      <trkpt lat="47.26867" lon="-1.67135">
        <ele>19.8443604</ele>
        <time>2011-11-17T14:57:48Z</time>
      </trkpt>
      <trkpt lat="47.26868" lon="-1.67134">
        <ele>19.8443604</ele>
        <time>2011-11-17T14:57:53Z</time>
      </trkpt>
      <trkpt lat="47.26889" lon="-1.67116">
        <ele>22.2475586</ele>
        <time>2011-11-17T14:58:11Z</time>
      </trkpt>
      <trkpt lat="47.26895" lon="-1.6708">
        <ele>32.8222656</ele>
        <time>2011-11-17T14:58:32Z</time>
      </trkpt>
      <trkpt lat="47.26897" lon="-1.67035">
        <ele>38.109375</ele>
        <time>2011-11-17T14:58:52Z</time>
      </trkpt>
      <trkpt lat="47.26899" lon="-1.6699">
        <ele>38.109375</ele>
        <time>2011-11-17T14:59:13Z</time>
      </trkpt>
      <trkpt lat="47.26916" lon="-1.66955">
        <ele>32.3415527</ele>
        <time>2011-11-17T14:59:32Z</time>
      </trkpt>
      <trkpt lat="47.26914" lon="-1.6692">
        <ele>31.380127</ele>
        <time>2011-11-17T14:59:53Z</time>
      </trkpt>
      <trkpt lat="47.26922" lon="-1.66893">
        <ele>30.4188232</ele>
        <time>2011-11-17T15:00:09Z</time>
      </trkpt>
      <trkpt lat="47.26919" lon="-1.66891">
        <ele>28.0155029</ele>
        <time>2011-11-17T15:00:13Z</time>
      </trkpt>
      <trkpt lat="47.26913" lon="-1.66878">
        <ele>26.0928955</ele>
        <time>2011-11-17T15:00:22Z</time>
      </trkpt>
      <trkpt lat="47.26907" lon="-1.6684">
        <ele>28.9769287</ele>
        <time>2011-11-17T15:00:40Z</time>
      </trkpt>
      <trkpt lat="47.2689" lon="-1.66824">
        <ele>30.8995361</ele>
        <time>2011-11-17T15:00:57Z</time>
      </trkpt>
      <trkpt lat="47.26868" lon="-1.66805">
        <ele>30.8995361</ele>
        <time>2011-11-17T15:01:14Z</time>
      </trkpt>
      <trkpt lat="47.26854" lon="-1.66792">
        <ele>30.4188232</ele>
        <time>2011-11-17T15:01:30Z</time>
      </trkpt>
      <trkpt lat="47.26827" lon="-1.6677">
        <ele>28.9769287</ele>
        <time>2011-11-17T15:01:48Z</time>
      </trkpt>
      <trkpt lat="47.26808" lon="-1.6675">
        <ele>27.5349121</ele>
        <time>2011-11-17T15:02:04Z</time>
      </trkpt>
      <trkpt lat="47.268" lon="-1.66718">
        <ele>25.1317139</ele>
        <time>2011-11-17T15:02:21Z</time>
      </trkpt>
      <trkpt lat="47.26778" lon="-1.66673">
        <ele>24.651001</ele>
        <time>2011-11-17T15:02:42Z</time>
      </trkpt>
      <trkpt lat="47.26767" lon="-1.66645">
        <ele>26.5736084</ele>
        <time>2011-11-17T15:02:58Z</time>
      </trkpt>
      <trkpt lat="47.26748" lon="-1.6662">
        <ele>28.4962158</ele>
        <time>2011-11-17T15:03:15Z</time>
      </trkpt>
      <trkpt lat="47.26746" lon="-1.66608">
        <ele>28.0155029</ele>
        <time>2011-11-17T15:03:20Z</time>
      </trkpt>
      <trkpt lat="47.26754" lon="-1.66583">
        <ele>30.4188232</ele>
        <time>2011-11-17T15:03:36Z</time>
      </trkpt>
      <trkpt lat="47.26758" lon="-1.66548">
        <ele>33.3028564</ele>
        <time>2011-11-17T15:03:56Z</time>
      </trkpt>
      <trkpt lat="47.26756" lon="-1.66512">
        <ele>35.7060547</ele>
        <time>2011-11-17T15:04:19Z</time>
      </trkpt>
      <trkpt lat="47.26756" lon="-1.66477">
        <ele>35.7060547</ele>
        <time>2011-11-17T15:04:39Z</time>
      </trkpt>
      <trkpt lat="47.26747" lon="-1.66449">
        <ele>35.2254639</ele>
        <time>2011-11-17T15:05:00Z</time>
      </trkpt>
      <trkpt lat="47.26739" lon="-1.66402">
        <ele>36.6674805</ele>
        <time>2011-11-17T15:05:24Z</time>
      </trkpt>
      <trkpt lat="47.26765" lon="-1.6638">
        <ele>40.0321045</ele>
        <time>2011-11-17T15:05:52Z</time>
      </trkpt>
      <trkpt lat="47.26782" lon="-1.66378">
        <ele>40.9934082</ele>
        <time>2011-11-17T15:06:07Z</time>
      </trkpt>
      <trkpt lat="47.26799" lon="-1.66367">
        <ele>38.5900879</ele>
        <time>2011-11-17T15:06:23Z</time>
      </trkpt>
      <trkpt lat="47.26811" lon="-1.66361">
        <ele>34.2641602</ele>
        <time>2011-11-17T15:06:34Z</time>
      </trkpt>
      <trkpt lat="47.26812" lon="-1.66352">
        <ele>36.6674805</ele>
        <time>2011-11-17T15:06:43Z</time>
      </trkpt>
      <trkpt lat="47.26807" lon="-1.66348">
        <ele>35.7060547</ele>
        <time>2011-11-17T15:06:48Z</time>
      </trkpt>
      <trkpt lat="47.26797" lon="-1.66345">
        <ele>34.744873</ele>
        <time>2011-11-17T15:06:56Z</time>
      </trkpt>
      <trkpt lat="47.26769" lon="-1.66333">
        <ele>28.9769287</ele>
        <time>2011-11-17T15:07:17Z</time>
      </trkpt>
      <trkpt lat="47.26745" lon="-1.6632">
        <ele>28.0155029</ele>
        <time>2011-11-17T15:07:35Z</time>
      </trkpt>
      <trkpt lat="47.26735" lon="-1.66289">
        <ele>35.2254639</ele>
        <time>2011-11-17T15:07:52Z</time>
      </trkpt>
      <trkpt lat="47.26718" lon="-1.66271">
        <ele>32.3415527</ele>
        <time>2011-11-17T15:08:07Z</time>
      </trkpt>
      <trkpt lat="47.26712" lon="-1.66267">
        <ele>32.3415527</ele>
        <time>2011-11-17T15:08:12Z</time>
      </trkpt>
      <trkpt lat="47.26686" lon="-1.66254">
        <ele>31.380127</ele>
        <time>2011-11-17T15:08:31Z</time>
      </trkpt>
      <trkpt lat="47.26683" lon="-1.66239">
        <ele>28.9769287</ele>
        <time>2011-11-17T15:08:42Z</time>
      </trkpt>
      <trkpt lat="47.26678" lon="-1.66218">
        <ele>28.0155029</ele>
        <time>2011-11-17T15:08:54Z</time>
      </trkpt>
      <trkpt lat="47.26672" lon="-1.66184">
        <ele>29.9381104</ele>
        <time>2011-11-17T15:09:12Z</time>
      </trkpt>
      <trkpt lat="47.26656" lon="-1.66155">
        <ele>27.0543213</ele>
        <time>2011-11-17T15:09:31Z</time>
      </trkpt>
      <trkpt lat="47.26642" lon="-1.6615">
        <ele>23.6895752</ele>
        <time>2011-11-17T15:09:53Z</time>
      </trkpt>
      <trkpt lat="47.26638" lon="-1.66129">
        <ele>24.1702881</ele>
        <time>2011-11-17T15:10:03Z</time>
      </trkpt>
      <trkpt lat="47.26635" lon="-1.66099">
        <ele>26.5736084</ele>
        <time>2011-11-17T15:10:18Z</time>
      </trkpt>
      <trkpt lat="47.26618" lon="-1.66071">
        <ele>25.1317139</ele>
        <time>2011-11-17T15:10:35Z</time>
      </trkpt>
      <trkpt lat="47.26613" lon="-1.66066">
        <ele>21.286377</ele>
        <time>2011-11-17T15:10:38Z</time>
      </trkpt>
      <trkpt lat="47.26603" lon="-1.66062">
        <ele>23.2089844</ele>
        <time>2011-11-17T15:10:45Z</time>
      </trkpt>
      <trkpt lat="47.26579" lon="-1.66049">
        <ele>20.8056641</ele>
        <time>2011-11-17T15:11:04Z</time>
      </trkpt>
      <trkpt lat="47.2657" lon="-1.66043">
        <ele>19.8443604</ele>
        <time>2011-11-17T15:11:10Z</time>
      </trkpt>
      <trkpt lat="47.26542" lon="-1.66042">
        <ele>18.4023438</ele>
        <time>2011-11-17T15:11:28Z</time>
      </trkpt>
      <trkpt lat="47.26541" lon="-1.66041">
        <ele>17.9217529</ele>
        <time>2011-11-17T15:11:29Z</time>
      </trkpt>
      <trkpt lat="47.26527" lon="-1.66012">
        <ele>11.1925049</ele>
        <time>2011-11-17T15:11:47Z</time>
      </trkpt>
      <trkpt lat="47.26526" lon="-1.65997">
        <ele>13.5958252</ele>
        <time>2011-11-17T15:11:58Z</time>
      </trkpt>
      <trkpt lat="47.26526" lon="-1.65958">
        <ele>11.1925049</ele>
        <time>2011-11-17T15:12:14Z</time>
      </trkpt>
      <trkpt lat="47.26511" lon="-1.6593">
        <ele>9.2698975</ele>
        <time>2011-11-17T15:12:32Z</time>
      </trkpt>
      <trkpt lat="47.26512" lon="-1.65905">
        <ele>9.7506104</ele>
        <time>2011-11-17T15:12:47Z</time>
      </trkpt>
      <trkpt lat="47.2652" lon="-1.6587">
        <ele>14.5570068</ele>
        <time>2011-11-17T15:13:01Z</time>
      </trkpt>
      <trkpt lat="47.26519" lon="-1.65839">
        <ele>8.3085938</ele>
        <time>2011-11-17T15:13:18Z</time>
      </trkpt>
      <trkpt lat="47.26508" lon="-1.65813">
        <ele>9.7506104</ele>
        <time>2011-11-17T15:13:35Z</time>
      </trkpt>
      <trkpt lat="47.26497" lon="-1.65783">
        <ele>16.4797363</ele>
        <time>2011-11-17T15:13:53Z</time>
      </trkpt>
      <trkpt lat="47.265" lon="-1.65753">
        <ele>18.8830566</ele>
        <time>2011-11-17T15:14:06Z</time>
      </trkpt>
      <trkpt lat="47.26512" lon="-1.65733">
        <ele>19.8443604</ele>
        <time>2011-11-17T15:14:21Z</time>
      </trkpt>
      <trkpt lat="47.26529" lon="-1.65729">
        <ele>25.1317139</ele>
        <time>2011-11-17T15:14:36Z</time>
      </trkpt>
      <trkpt lat="47.26554" lon="-1.65718">
        <ele>30.4188232</ele>
        <time>2011-11-17T15:14:54Z</time>
      </trkpt>
      <trkpt lat="47.2658" lon="-1.65705">
        <ele>35.7060547</ele>
        <time>2011-11-17T15:15:13Z</time>
      </trkpt>
      <trkpt lat="47.26583" lon="-1.65671">
        <ele>29.9381104</ele>
        <time>2011-11-17T15:15:39Z</time>
      </trkpt>
      <trkpt lat="47.26585" lon="-1.6563">
        <ele>28.4962158</ele>
        <time>2011-11-17T15:16:03Z</time>
      </trkpt>
      <trkpt lat="47.26575" lon="-1.6558">
        <ele>27.5349121</ele>
        <time>2011-11-17T15:16:31Z</time>
      </trkpt>
      <trkpt lat="47.26567" lon="-1.65534">
        <ele>25.6123047</ele>
        <time>2011-11-17T15:16:55Z</time>
      </trkpt>
      <trkpt lat="47.26563" lon="-1.65526">
        <ele>25.1317139</ele>
        <time>2011-11-17T15:17:05Z</time>
      </trkpt>
      <trkpt lat="47.26558" lon="-1.65511">
        <ele>29.9381104</ele>
        <time>2011-11-17T15:17:17Z</time>
      </trkpt>
      <trkpt lat="47.26561" lon="-1.65503">
        <ele>30.8995361</ele>
        <time>2011-11-17T15:17:22Z</time>
      </trkpt>
      <trkpt lat="47.2656" lon="-1.65497">
        <ele>31.8607178</ele>
        <time>2011-11-17T15:17:26Z</time>
      </trkpt>
      <trkpt lat="47.2656" lon="-1.65462">
        <ele>36.1867676</ele>
        <time>2011-11-17T15:17:43Z</time>
      </trkpt>
      <trkpt lat="47.26562" lon="-1.65437">
        <ele>38.109375</ele>
        <time>2011-11-17T15:17:53Z</time>
      </trkpt>
      <trkpt lat="47.26572" lon="-1.65405">
        <ele>41.9547119</ele>
        <time>2011-11-17T15:18:11Z</time>
      </trkpt>
      <trkpt lat="47.2658" lon="-1.65375">
        <ele>40.9934082</ele>
        <time>2011-11-17T15:18:27Z</time>
      </trkpt>
      <trkpt lat="47.26586" lon="-1.65355">
        <ele>38.5900879</ele>
        <time>2011-11-17T15:18:40Z</time>
      </trkpt>
      <trkpt lat="47.26587" lon="-1.65352">
        <ele>38.109375</ele>
        <time>2011-11-17T15:18:42Z</time>
      </trkpt>
      <trkpt lat="47.26588" lon="-1.65345">
        <ele>37.6286621</ele>
        <time>2011-11-17T15:18:46Z</time>
      </trkpt>
      <trkpt lat="47.26591" lon="-1.65308">
        <ele>39.5512695</ele>
        <time>2011-11-17T15:19:06Z</time>
      </trkpt>
      <trkpt lat="47.26592" lon="-1.65275">
        <ele>36.1867676</ele>
        <time>2011-11-17T15:19:23Z</time>
      </trkpt>
      <trkpt lat="47.26602" lon="-1.65263">
        <ele>35.7060547</ele>
        <time>2011-11-17T15:19:41Z</time>
      </trkpt>
      <trkpt lat="47.26622" lon="-1.65269">
        <ele>37.6286621</ele>
        <time>2011-11-17T15:19:58Z</time>
      </trkpt>
      <trkpt lat="47.26643" lon="-1.65282">
        <ele>39.5512695</ele>
        <time>2011-11-17T15:20:17Z</time>
      </trkpt>
      <trkpt lat="47.26662" lon="-1.6529">
        <ele>38.5900879</ele>
        <time>2011-11-17T15:20:37Z</time>
      </trkpt>
      <trkpt lat="47.26679" lon="-1.65309">
        <ele>33.7834473</ele>
        <time>2011-11-17T15:20:55Z</time>
      </trkpt>
      <trkpt lat="47.26696" lon="-1.65316">
        <ele>30.8995361</ele>
        <time>2011-11-17T15:21:11Z</time>
      </trkpt>
      <trkpt lat="47.26718" lon="-1.65324">
        <ele>27.5349121</ele>
        <time>2011-11-17T15:21:32Z</time>
      </trkpt>
      <trkpt lat="47.26732" lon="-1.65327">
        <ele>21.7669678</ele>
        <time>2011-11-17T15:21:53Z</time>
      </trkpt>
      <trkpt lat="47.26754" lon="-1.6531">
        <ele>19.3637695</ele>
        <time>2011-11-17T15:22:16Z</time>
      </trkpt>
      <trkpt lat="47.26752" lon="-1.65302">
        <ele>18.4023438</ele>
        <time>2011-11-17T15:22:22Z</time>
      </trkpt>
      <trkpt lat="47.2676" lon="-1.65261">
        <ele>7.8278809</ele>
        <time>2011-11-17T15:22:46Z</time>
      </trkpt>
      <trkpt lat="47.26777" lon="-1.65236">
        <ele>9.2698975</ele>
        <time>2011-11-17T15:23:03Z</time>
      </trkpt>
      <trkpt lat="47.26772" lon="-1.65218">
        <ele>9.7506104</ele>
        <time>2011-11-17T15:23:17Z</time>
      </trkpt>
      <trkpt lat="47.2678" lon="-1.6518">
        <ele>3.982666</ele>
        <time>2011-11-17T15:23:38Z</time>
      </trkpt>
      <trkpt lat="47.26798" lon="-1.65148">
        <ele>6.8664551</ele>
        <time>2011-11-17T15:23:58Z</time>
      </trkpt>
      <trkpt lat="47.26813" lon="-1.65127">
        <ele>6.3858643</ele>
        <time>2011-11-17T15:24:12Z</time>
      </trkpt>
      <trkpt lat="47.26821" lon="-1.65111">
        <ele>4.4632568</ele>
        <time>2011-11-17T15:24:19Z</time>
      </trkpt>
      <trkpt lat="47.26837" lon="-1.65077">
        <ele>4.9438477</ele>
        <time>2011-11-17T15:24:39Z</time>
      </trkpt>
      <trkpt lat="47.26841" lon="-1.65049">
        <ele>8.3085938</ele>
        <time>2011-11-17T15:24:54Z</time>
      </trkpt>
      <trkpt lat="47.26845" lon="-1.65024">
        <ele>13.5958252</ele>
        <time>2011-11-17T15:25:07Z</time>
      </trkpt>
      <trkpt lat="47.26853" lon="-1.64992">
        <ele>5.9052734</ele>
        <time>2011-11-17T15:25:20Z</time>
      </trkpt>
      <trkpt lat="47.26864" lon="-1.64968">
        <ele>5.9052734</ele>
        <time>2011-11-17T15:25:36Z</time>
      </trkpt>
      <trkpt lat="47.26871" lon="-1.64941">
        <ele>9.2698975</ele>
        <time>2011-11-17T15:25:49Z</time>
      </trkpt>
      <trkpt lat="47.26874" lon="-1.6492">
        <ele>10.2312012</ele>
        <time>2011-11-17T15:26:00Z</time>
      </trkpt>
      <trkpt lat="47.26878" lon="-1.64917">
        <ele>8.7891846</ele>
        <time>2011-11-17T15:26:04Z</time>
      </trkpt>
      <trkpt lat="47.26881" lon="-1.64914">
        <ele>5.9052734</ele>
        <time>2011-11-17T15:26:07Z</time>
      </trkpt>
      <trkpt lat="47.26891" lon="-1.64883">
        <ele>2.0600586</ele>
        <time>2011-11-17T15:26:23Z</time>
      </trkpt>
      <trkpt lat="47.26903" lon="-1.64859">
        <ele>7.8278809</ele>
        <time>2011-11-17T15:26:39Z</time>
      </trkpt>
      <trkpt lat="47.26906" lon="-1.64834">
        <ele>8.7891846</ele>
        <time>2011-11-17T15:26:52Z</time>
      </trkpt>
      <trkpt lat="47.26923" lon="-1.6481">
        <ele>10.2312012</ele>
        <time>2011-11-17T15:27:10Z</time>
      </trkpt>
      <trkpt lat="47.26952" lon="-1.64805">
        <ele>12.6343994</ele>
        <time>2011-11-17T15:27:30Z</time>
      </trkpt>
      <trkpt lat="47.26959" lon="-1.64802">
        <ele>12.6343994</ele>
        <time>2011-11-17T15:27:35Z</time>
      </trkpt>
      <trkpt lat="47.26962" lon="-1.648">
        <ele>11.6732178</ele>
        <time>2011-11-17T15:27:38Z</time>
      </trkpt>
      <trkpt lat="47.26966" lon="-1.64773">
        <ele>11.1925049</ele>
        <time>2011-11-17T15:27:55Z</time>
      </trkpt>
      <trkpt lat="47.26965" lon="-1.6477">
        <ele>11.1925049</ele>
        <time>2011-11-17T15:27:56Z</time>
      </trkpt>
      <trkpt lat="47.26964" lon="-1.64742">
        <ele>11.6732178</ele>
        <time>2011-11-17T15:28:08Z</time>
      </trkpt>
      <trkpt lat="47.26968" lon="-1.64702">
        <ele>4.9438477</ele>
        <time>2011-11-17T15:28:24Z</time>
      </trkpt>
      <trkpt lat="47.26973" lon="-1.64691">
        <ele>1.5793457</ele>
        <time>2011-11-17T15:28:36Z</time>
      </trkpt>
      <trkpt lat="47.2698" lon="-1.64663">
        <ele>0.1374512</ele>
        <time>2011-11-17T15:28:51Z</time>
      </trkpt>
      <trkpt lat="47.26979" lon="-1.64661">
        <ele>1.0986328</ele>
        <time>2011-11-17T15:28:52Z</time>
      </trkpt>
      <trkpt lat="47.26974" lon="-1.64613">
        <ele>3.982666</ele>
        <time>2011-11-17T15:29:14Z</time>
      </trkpt>
      <trkpt lat="47.26974" lon="-1.64573">
        <ele>9.7506104</ele>
        <time>2011-11-17T15:29:38Z</time>
      </trkpt>
      <trkpt lat="47.26972" lon="-1.64562">
        <ele>11.6732178</ele>
        <time>2011-11-17T15:29:49Z</time>
      </trkpt>
      <trkpt lat="47.26972" lon="-1.64532">
        <ele>13.1151123</ele>
        <time>2011-11-17T15:30:00Z</time>
      </trkpt>
      <trkpt lat="47.26985" lon="-1.64494">
        <ele>15.5184326</ele>
        <time>2011-11-17T15:30:15Z</time>
      </trkpt>
      <trkpt lat="47.26994" lon="-1.64464">
        <ele>15.0377197</ele>
        <time>2011-11-17T15:30:36Z</time>
      </trkpt>
      <trkpt lat="47.27008" lon="-1.64437">
        <ele>11.1925049</ele>
        <time>2011-11-17T15:30:53Z</time>
      </trkpt>
      <trkpt lat="47.27016" lon="-1.64406">
        <ele>10.711792</ele>
        <time>2011-11-17T15:31:17Z</time>
      </trkpt>
      <trkpt lat="47.27015" lon="-1.64401">
        <ele>10.711792</ele>
        <time>2011-11-17T15:31:19Z</time>
      </trkpt>
      <trkpt lat="47.27016" lon="-1.64397">
        <ele>9.2698975</ele>
        <time>2011-11-17T15:31:22Z</time>
      </trkpt>
      <trkpt lat="47.27016" lon="-1.64362">
        <ele>15.5184326</ele>
        <time>2011-11-17T15:31:42Z</time>
      </trkpt>
      <trkpt lat="47.27007" lon="-1.64335">
        <ele>19.3637695</ele>
        <time>2011-11-17T15:32:01Z</time>
      </trkpt>
      <trkpt lat="47.27005" lon="-1.64286">
        <ele>27.0543213</ele>
        <time>2011-11-17T15:32:22Z</time>
      </trkpt>
      <trkpt lat="47.27004" lon="-1.64283">
        <ele>27.0543213</ele>
        <time>2011-11-17T15:32:24Z</time>
      </trkpt>
      <trkpt lat="47.26995" lon="-1.64266">
        <ele>24.1702881</ele>
        <time>2011-11-17T15:32:39Z</time>
      </trkpt>
      <trkpt lat="47.26988" lon="-1.64237">
        <ele>24.651001</ele>
        <time>2011-11-17T15:32:53Z</time>
      </trkpt>
      <trkpt lat="47.26974" lon="-1.64208">
        <ele>28.4962158</ele>
        <time>2011-11-17T15:33:14Z</time>
      </trkpt>
      <trkpt lat="47.26969" lon="-1.642">
        <ele>29.9381104</ele>
        <time>2011-11-17T15:33:20Z</time>
      </trkpt>
      <trkpt lat="47.26946" lon="-1.64168">
        <ele>26.5736084</ele>
        <time>2011-11-17T15:33:42Z</time>
      </trkpt>
      <trkpt lat="47.26941" lon="-1.64159">
        <ele>26.5736084</ele>
        <time>2011-11-17T15:33:48Z</time>
      </trkpt>
      <trkpt lat="47.26922" lon="-1.64131">
        <ele>28.4962158</ele>
        <time>2011-11-17T15:34:03Z</time>
      </trkpt>
      <trkpt lat="47.26911" lon="-1.64119">
        <ele>29.9381104</ele>
        <time>2011-11-17T15:34:13Z</time>
      </trkpt>
      <trkpt lat="47.26897" lon="-1.64082">
        <ele>30.4188232</ele>
        <time>2011-11-17T15:34:33Z</time>
      </trkpt>
      <trkpt lat="47.26904" lon="-1.64038">
        <ele>28.9769287</ele>
        <time>2011-11-17T15:34:56Z</time>
      </trkpt>
      <trkpt lat="47.26913" lon="-1.64016">
        <ele>27.5349121</ele>
        <time>2011-11-17T15:35:15Z</time>
      </trkpt>
      <trkpt lat="47.26908" lon="-1.63997">
        <ele>30.4188232</ele>
        <time>2011-11-17T15:35:34Z</time>
      </trkpt>
      <trkpt lat="47.26899" lon="-1.63977">
        <ele>28.4962158</ele>
        <time>2011-11-17T15:35:50Z</time>
      </trkpt>
      <trkpt lat="47.26898" lon="-1.63943">
        <ele>27.0543213</ele>
        <time>2011-11-17T15:36:10Z</time>
      </trkpt>
      <trkpt lat="47.26897" lon="-1.63924">
        <ele>24.1702881</ele>
        <time>2011-11-17T15:36:28Z</time>
      </trkpt>
      <trkpt lat="47.26886" lon="-1.63907">
        <ele>27.5349121</ele>
        <time>2011-11-17T15:36:48Z</time>
      </trkpt>
      <trkpt lat="47.26879" lon="-1.63908">
        <ele>28.4962158</ele>
        <time>2011-11-17T15:37:07Z</time>
      </trkpt>
      <trkpt lat="47.26863" lon="-1.63907">
        <ele>30.8995361</ele>
        <time>2011-11-17T15:37:26Z</time>
      </trkpt>
      <trkpt lat="47.26832" lon="-1.63899">
        <ele>28.0155029</ele>
        <time>2011-11-17T15:37:45Z</time>
      </trkpt>
      <trkpt lat="47.26823" lon="-1.63887">
        <ele>29.4575195</ele>
        <time>2011-11-17T15:38:02Z</time>
      </trkpt>
      <trkpt lat="47.26805" lon="-1.63909">
        <ele>29.4575195</ele>
        <time>2011-11-17T15:38:25Z</time>
      </trkpt>
      <trkpt lat="47.26787" lon="-1.63936">
        <ele>26.0928955</ele>
        <time>2011-11-17T15:38:48Z</time>
      </trkpt>
      <trkpt lat="47.26785" lon="-1.63937">
        <ele>25.6123047</ele>
        <time>2011-11-17T15:38:50Z</time>
      </trkpt>
      <trkpt lat="47.26766" lon="-1.63956">
        <ele>22.2475586</ele>
        <time>2011-11-17T15:39:04Z</time>
      </trkpt>
      <trkpt lat="47.26736" lon="-1.63948">
        <ele>23.6895752</ele>
        <time>2011-11-17T15:39:21Z</time>
      </trkpt>
      <trkpt lat="47.2672" lon="-1.63921">
        <ele>20.8056641</ele>
        <time>2011-11-17T15:39:42Z</time>
      </trkpt>
      <trkpt lat="47.26718" lon="-1.63919">
        <ele>19.8443604</ele>
        <time>2011-11-17T15:39:45Z</time>
      </trkpt>
      <trkpt lat="47.26699" lon="-1.63902">
        <ele>20.8056641</ele>
        <time>2011-11-17T15:39:58Z</time>
      </trkpt>
      <trkpt lat="47.26694" lon="-1.63857">
        <ele>44.838623</ele>
        <time>2011-11-17T15:40:25Z</time>
      </trkpt>
      <trkpt lat="47.26698" lon="-1.63828">
        <ele>43.8773193</ele>
        <time>2011-11-17T15:40:49Z</time>
      </trkpt>
      <trkpt lat="47.267" lon="-1.63784">
        <ele>41.473999</ele>
        <time>2011-11-17T15:41:12Z</time>
      </trkpt>
      <trkpt lat="47.26702" lon="-1.63746">
        <ele>46.2806396</ele>
        <time>2011-11-17T15:41:29Z</time>
      </trkpt>
      <trkpt lat="47.26708" lon="-1.63709">
        <ele>48.68396</ele>
        <time>2011-11-17T15:41:48Z</time>
      </trkpt>
      <trkpt lat="47.26734" lon="-1.63668">
        <ele>45.3192139</ele>
        <time>2011-11-17T15:42:10Z</time>
      </trkpt>
      <trkpt lat="47.26747" lon="-1.6365">
        <ele>41.473999</ele>
        <time>2011-11-17T15:42:19Z</time>
      </trkpt>
      <trkpt lat="47.26773" lon="-1.63607">
        <ele>23.2089844</ele>
        <time>2011-11-17T15:42:37Z</time>
      </trkpt>
      <trkpt lat="47.26797" lon="-1.63592">
        <ele>14.076416</ele>
        <time>2011-11-17T15:42:56Z</time>
      </trkpt>
      <trkpt lat="47.26802" lon="-1.63589">
        <ele>13.5958252</ele>
        <time>2011-11-17T15:43:01Z</time>
      </trkpt>
      <trkpt lat="47.26814" lon="-1.63554">
        <ele>19.3637695</ele>
        <time>2011-11-17T15:43:19Z</time>
      </trkpt>
      <trkpt lat="47.26837" lon="-1.63515">
        <ele>14.5570068</ele>
        <time>2011-11-17T15:43:43Z</time>
      </trkpt>
      <trkpt lat="47.26856" lon="-1.63471">
        <ele>10.2312012</ele>
        <time>2011-11-17T15:44:09Z</time>
      </trkpt>
      <trkpt lat="47.26867" lon="-1.63434">
        <ele>10.2312012</ele>
        <time>2011-11-17T15:44:28Z</time>
      </trkpt>
      <trkpt lat="47.26871" lon="-1.63395">
        <ele>12.6343994</ele>
        <time>2011-11-17T15:44:48Z</time>
      </trkpt>
      <trkpt lat="47.2687" lon="-1.63363">
        <ele>12.6343994</ele>
        <time>2011-11-17T15:45:04Z</time>
      </trkpt>
      <trkpt lat="47.26882" lon="-1.63359">
        <ele>10.711792</ele>
        <time>2011-11-17T15:45:12Z</time>
      </trkpt>
      <trkpt lat="47.26886" lon="-1.63363">
        <ele>8.7891846</ele>
        <time>2011-11-17T15:45:15Z</time>
      </trkpt>
      <trkpt lat="47.26912" lon="-1.63376">
        <ele>9.7506104</ele>
        <time>2011-11-17T15:45:37Z</time>
      </trkpt>
      <trkpt lat="47.26932" lon="-1.63376">
        <ele>7.8278809</ele>
        <time>2011-11-17T15:45:58Z</time>
      </trkpt>
      <trkpt lat="47.26938" lon="-1.63345">
        <ele>8.7891846</ele>
        <time>2011-11-17T15:46:17Z</time>
      </trkpt>
      <trkpt lat="47.26943" lon="-1.63328">
        <ele>9.7506104</ele>
        <time>2011-11-17T15:46:24Z</time>
      </trkpt>
      <trkpt lat="47.26949" lon="-1.63309">
        <ele>11.6732178</ele>
        <time>2011-11-17T15:46:34Z</time>
      </trkpt>
      <trkpt lat="47.26957" lon="-1.63294">
        <ele>13.5958252</ele>
        <time>2011-11-17T15:46:44Z</time>
      </trkpt>
      <trkpt lat="47.26956" lon="-1.63267">
        <ele>10.711792</ele>
        <time>2011-11-17T15:47:00Z</time>
      </trkpt>
      <trkpt lat="47.26942" lon="-1.63263">
        <ele>13.1151123</ele>
        <time>2011-11-17T15:47:09Z</time>
      </trkpt>
      <trkpt lat="47.26925" lon="-1.63254">
        <ele>11.6732178</ele>
        <time>2011-11-17T15:47:23Z</time>
      </trkpt>
      <trkpt lat="47.26921" lon="-1.63253">
        <ele>11.6732178</ele>
        <time>2011-11-17T15:47:26Z</time>
      </trkpt>
      <trkpt lat="47.269" lon="-1.63235">
        <ele>9.2698975</ele>
        <time>2011-11-17T15:47:45Z</time>
      </trkpt>
      <trkpt lat="47.26886" lon="-1.63219">
        <ele>7.347168</ele>
        <time>2011-11-17T15:47:55Z</time>
      </trkpt>
      <trkpt lat="47.26886" lon="-1.63194">
        <ele>7.8278809</ele>
        <time>2011-11-17T15:48:11Z</time>
      </trkpt>
      <trkpt lat="47.26887" lon="-1.6317">
        <ele>12.6343994</ele>
        <time>2011-11-17T15:48:27Z</time>
      </trkpt>
      <trkpt lat="47.26882" lon="-1.63149">
        <ele>16.4797363</ele>
        <time>2011-11-17T15:48:36Z</time>
      </trkpt>
      <trkpt lat="47.26879" lon="-1.63137">
        <ele>15.0377197</ele>
        <time>2011-11-17T15:48:39Z</time>
      </trkpt>
      <trkpt lat="47.26875" lon="-1.63114">
        <ele>15.0377197</ele>
        <time>2011-11-17T15:48:56Z</time>
      </trkpt>
      <trkpt lat="47.26859" lon="-1.63082">
        <ele>11.1925049</ele>
        <time>2011-11-17T15:49:12Z</time>
      </trkpt>
      <trkpt lat="47.26841" lon="-1.63061">
        <ele>6.3858643</ele>
        <time>2011-11-17T15:49:28Z</time>
      </trkpt>
      <trkpt lat="47.2684" lon="-1.63058">
        <ele>6.8664551</ele>
        <time>2011-11-17T15:49:30Z</time>
      </trkpt>
      <trkpt lat="47.26837" lon="-1.63052">
        <ele>5.4245605</ele>
        <time>2011-11-17T15:49:33Z</time>
      </trkpt>
      <trkpt lat="47.26825" lon="-1.63038">
        <ele>5.9052734</ele>
        <time>2011-11-17T15:49:44Z</time>
      </trkpt>
      <trkpt lat="47.26805" lon="-1.63026">
        <ele>2.5406494</ele>
        <time>2011-11-17T15:50:00Z</time>
      </trkpt>
      <trkpt lat="47.26789" lon="-1.62993">
        <ele>3.982666</ele>
        <time>2011-11-17T15:50:18Z</time>
      </trkpt>
      <trkpt lat="47.26787" lon="-1.62959">
        <ele>3.0212402</ele>
        <time>2011-11-17T15:50:33Z</time>
      </trkpt>
      <trkpt lat="47.26785" lon="-1.62918">
        <ele>7.347168</ele>
        <time>2011-11-17T15:50:51Z</time>
      </trkpt>
      <trkpt lat="47.26774" lon="-1.62882">
        <ele>14.076416</ele>
        <time>2011-11-17T15:51:13Z</time>
      </trkpt>
      <trkpt lat="47.26769" lon="-1.6285">
        <ele>18.8830566</ele>
        <time>2011-11-17T15:51:29Z</time>
      </trkpt>
      <trkpt lat="47.26764" lon="-1.62808">
        <ele>17.4411621</ele>
        <time>2011-11-17T15:51:47Z</time>
      </trkpt>
      <trkpt lat="47.26765" lon="-1.62776">
        <ele>17.4411621</ele>
        <time>2011-11-17T15:52:02Z</time>
      </trkpt>
      <trkpt lat="47.2676" lon="-1.62739">
        <ele>21.286377</ele>
        <time>2011-11-17T15:52:19Z</time>
      </trkpt>
      <trkpt lat="47.2676" lon="-1.6269">
        <ele>14.076416</ele>
        <time>2011-11-17T15:52:39Z</time>
      </trkpt>
      <trkpt lat="47.26758" lon="-1.6265">
        <ele>15.9990234</ele>
        <time>2011-11-17T15:52:57Z</time>
      </trkpt>
      <trkpt lat="47.26759" lon="-1.62613">
        <ele>10.711792</ele>
        <time>2011-11-17T15:53:12Z</time>
      </trkpt>
      <trkpt lat="47.2676" lon="-1.62591">
        <ele>14.5570068</ele>
        <time>2011-11-17T15:53:26Z</time>
      </trkpt>
      <trkpt lat="47.26762" lon="-1.62555">
        <ele>15.5184326</ele>
        <time>2011-11-17T15:53:43Z</time>
      </trkpt>
      <trkpt lat="47.26765" lon="-1.6251">
        <ele>16.9604492</ele>
        <time>2011-11-17T15:53:58Z</time>
      </trkpt>
      <trkpt lat="47.26768" lon="-1.62496">
        <ele>17.4411621</ele>
        <time>2011-11-17T15:54:04Z</time>
      </trkpt>
      <trkpt lat="47.26773" lon="-1.62453">
        <ele>11.1925049</ele>
        <time>2011-11-17T15:54:21Z</time>
      </trkpt>
      <trkpt lat="47.26776" lon="-1.62431">
        <ele>12.6343994</ele>
        <time>2011-11-17T15:54:35Z</time>
      </trkpt>
      <trkpt lat="47.26779" lon="-1.62421">
        <ele>13.5958252</ele>
        <time>2011-11-17T15:54:40Z</time>
      </trkpt>
      <trkpt lat="47.26791" lon="-1.62388">
        <ele>8.3085938</ele>
        <time>2011-11-17T15:54:58Z</time>
      </trkpt>
      <trkpt lat="47.26803" lon="-1.6236">
        <ele>6.3858643</ele>
        <time>2011-11-17T15:55:16Z</time>
      </trkpt>
      <trkpt lat="47.26829" lon="-1.62392">
        <ele>8.7891846</ele>
        <time>2011-11-17T15:55:40Z</time>
      </trkpt>
      <trkpt lat="47.26854" lon="-1.62412">
        <ele>10.711792</ele>
        <time>2011-11-17T15:56:02Z</time>
      </trkpt>
      <trkpt lat="47.26878" lon="-1.6243">
        <ele>13.1151123</ele>
        <time>2011-11-17T15:56:23Z</time>
      </trkpt>
      <trkpt lat="47.269" lon="-1.62429">
        <ele>16.4797363</ele>
        <time>2011-11-17T15:56:39Z</time>
      </trkpt>
      <trkpt lat="47.26923" lon="-1.62436">
        <ele>19.3637695</ele>
        <time>2011-11-17T15:56:55Z</time>
      </trkpt>
      <trkpt lat="47.2693" lon="-1.62437">
        <ele>19.3637695</ele>
        <time>2011-11-17T15:57:01Z</time>
      </trkpt>
      <trkpt lat="47.26938" lon="-1.62447">
        <ele>17.9217529</ele>
        <time>2011-11-17T15:57:08Z</time>
      </trkpt>
      <trkpt lat="47.26946" lon="-1.62455">
        <ele>15.9990234</ele>
        <time>2011-11-17T15:57:16Z</time>
      </trkpt>
      <trkpt lat="47.26947" lon="-1.62424">
        <ele>18.8830566</ele>
        <time>2011-11-17T15:57:29Z</time>
      </trkpt>
      <trkpt lat="47.26951" lon="-1.62421">
        <ele>18.4023438</ele>
        <time>2011-11-17T15:57:33Z</time>
      </trkpt>
      <trkpt lat="47.26969" lon="-1.62425">
        <ele>23.2089844</ele>
        <time>2011-11-17T15:57:48Z</time>
      </trkpt>
    </trkseg>
  </trk>
</gpx>